Aérodrome :







RETROUVEZ-NOUS SUR...

 
LOGIN :

S'inscrire | Disclaimer

   EN    FR    IT 

 









Légende :    VFR   VFR Marginal   IFR   IFR Intensif   IFR Très Intensif
Visi : 
Plafond : 
>= 8 km
>= 3000ft
5 à 8 km
1000 à 3000 ft
1500m à 5 km
500 à 1000 ft
800 à 1500m
200 à 500 ft
< 800m
< 200 ft
Symboles :   Orages  Brouillard  Fortes neiges  Fortes précipitations  Vent > 20 kt






- Altitude de l'aérodrome : 1808 ft
- Code IATA : YWK


CYWK - Wabush

DERNIER METAR :
  • 171500Z 35013KT 8SM IC SCT009 M29/M34 A3018 RMK SC1 VIS LWR S SLP300

METARs EXPIRÉS :
  • 171431Z 34011KT 5SM IC SCT009 M29/M34 A3018 RMK SC1 WSHFT 1417 VIS S LWR SLP298
  • 171403Z 28010KT 4SM IC SCT009 M31/M35 A3018 RMK SC1 SLP299
  • 171300Z 31006KT 8SM IC FEW010 M32/M36 A3017 RMK SC1 SLP297

TAF TAF CYWK
Valide du 17 à 14h jusqu'au 18 à 02h UTC


171342Z 1714/1802 31008KT P6SM SKC
TEMPO 1714/1721 5SM IC
BECMG 1714/1716 31010G20KT
FM172100 30010G20KT P6SM SCT080 RMK NXT FCST BY 172000Z



MET'MAP, la Météo Aéronautique d'un coup d'oeil ! - Copyright ORBIFLY Décembre 2007 - Disclaimer

ORBIFLY MET'MAP TEAM :

Programmation & Développement : Alexandra Zaïnal
Sur une idée originale de : Baudouin d'Aumeries
Assistance à la programmation : Marc-Olivier Méhu
Soutien technique & logistique : Manuel Goepfert

Contact : metmap@orbifly.com




SOURCES & CREDITS :

   NOAA